sensor_id;sensor_type;location;lat;lon;timestamp;P1;durP1;ratioP1;P2;durP2;ratioP2
55009;SDS011;40903;51.638;7.528;2024-03-06T00:02:11;19.97;;;11.20;;
55009;SDS011;40903;51.638;7.528;2024-03-06T00:04:36;21.90;;;10.80;;
55009;SDS011;40903;51.638;7.528;2024-03-06T00:07:02;18.47;;;11.47;;
55009;SDS011;40903;51.638;7.528;2024-03-06T00:09:28;15.13;;;9.30;;
55009;SDS011;40903;51.638;7.528;2024-03-06T00:11:54;15.87;;;9.50;;
55009;SDS011;40903;51.638;7.528;2024-03-06T00:14:20;14.73;;;9.17;;
55009;SDS011;40903;51.638;7.528;2024-03-06T00:16:49;15.83;;;9.33;;
55009;SDS011;40903;51.638;7.528;2024-03-06T00:19:19;13.70;;;9.03;;
55009;SDS011;40903;51.638;7.528;2024-03-06T00:21:45;16.13;;;9.93;;
55009;SDS011;40903;51.638;7.528;2024-03-06T00:24:11;14.97;;;8.80;;
55009;SDS011;40903;51.638;7.528;2024-03-06T00:26:39;15.57;;;8.53;;
55009;SDS011;40903;51.638;7.528;2024-03-06T00:29:06;15.93;;;8.37;;
55009;SDS011;40903;51.638;7.528;2024-03-06T00:31:31;15.37;;;8.27;;
55009;SDS011;40903;51.638;7.528;2024-03-06T00:33:57;14.67;;;8.40;;
55009;SDS011;40903;51.638;7.528;2024-03-06T00:36:22;14.43;;;8.23;;
55009;SDS011;40903;51.638;7.528;2024-03-06T00:38:48;15.33;;;9.17;;
55009;SDS011;40903;51.638;7.528;2024-03-06T00:41:13;15.37;;;9.00;;
55009;SDS011;40903;51.638;7.528;2024-03-06T00:43:39;15.77;;;9.07;;
55009;SDS011;40903;51.638;7.528;2024-03-06T00:46:04;14.30;;;9.23;;
55009;SDS011;40903;51.638;7.528;2024-03-06T00:48:30;16.90;;;9.97;;
55009;SDS011;40903;51.638;7.528;2024-03-06T00:50:56;15.87;;;10.33;;
55009;SDS011;40903;51.638;7.528;2024-03-06T00:53:21;15.43;;;8.70;;
55009;SDS011;40903;51.638;7.528;2024-03-06T00:55:47;16.20;;;8.97;;
55009;SDS011;40903;51.638;7.528;2024-03-06T00:58:12;13.47;;;8.07;;
55009;SDS011;40903;51.638;7.528;2024-03-06T01:00:38;12.93;;;8.10;;
55009;SDS011;40903;51.638;7.528;2024-03-06T01:03:04;12.13;;;7.83;;
55009;SDS011;40903;51.638;7.528;2024-03-06T01:05:29;14.17;;;7.80;;
55009;SDS011;40903;51.638;7.528;2024-03-06T01:07:55;12.10;;;7.03;;
55009;SDS011;40903;51.638;7.528;2024-03-06T01:10:21;12.23;;;7.30;;
55009;SDS011;40903;51.638;7.528;2024-03-06T01:12:47;12.63;;;6.80;;
55009;SDS011;40903;51.638;7.528;2024-03-06T01:15:13;12.17;;;6.73;;
55009;SDS011;40903;51.638;7.528;2024-03-06T01:17:39;11.33;;;6.73;;
55009;SDS011;40903;51.638;7.528;2024-03-06T01:20:05;10.87;;;6.63;;
55009;SDS011;40903;51.638;7.528;2024-03-06T01:22:34;12.20;;;7.53;;
55009;SDS011;40903;51.638;7.528;2024-03-06T01:24:59;11.43;;;7.63;;
55009;SDS011;40903;51.638;7.528;2024-03-06T01:27:25;13.97;;;8.20;;
55009;SDS011;40903;51.638;7.528;2024-03-06T01:29:51;11.03;;;6.93;;
55009;SDS011;40903;51.638;7.528;2024-03-06T01:32:17;10.20;;;7.17;;
55009;SDS011;40903;51.638;7.528;2024-03-06T01:34:42;13.43;;;7.30;;
55009;SDS011;40903;51.638;7.528;2024-03-06T01:37:08;10.07;;;6.30;;
55009;SDS011;40903;51.638;7.528;2024-03-06T01:39:33;10.67;;;6.70;;
55009;SDS011;40903;51.638;7.528;2024-03-06T01:42:00;9.20;;;5.97;;
55009;SDS011;40903;51.638;7.528;2024-03-06T01:44:28;11.90;;;7.00;;
55009;SDS011;40903;51.638;7.528;2024-03-06T01:46:54;12.80;;;7.13;;
55009;SDS011;40903;51.638;7.528;2024-03-06T01:49:20;12.90;;;6.53;;
55009;SDS011;40903;51.638;7.528;2024-03-06T01:51:51;9.13;;;6.00;;
55009;SDS011;40903;51.638;7.528;2024-03-06T01:54:19;11.00;;;6.40;;
55009;SDS011;40903;51.638;7.528;2024-03-06T01:56:46;10.03;;;6.30;;
55009;SDS011;40903;51.638;7.528;2024-03-06T01:59:15;11.50;;;6.20;;
55009;SDS011;40903;51.638;7.528;2024-03-06T02:01:43;11.30;;;6.40;;
55009;SDS011;40903;51.638;7.528;2024-03-06T02:04:10;10.07;;;6.47;;
55009;SDS011;40903;51.638;7.528;2024-03-06T02:06:38;10.87;;;6.07;;
55009;SDS011;40903;51.638;7.528;2024-03-06T02:09:04;13.57;;;8.03;;
55009;SDS011;40903;51.638;7.528;2024-03-06T02:11:30;14.17;;;7.90;;
55009;SDS011;40903;51.638;7.528;2024-03-06T02:13:56;12.40;;;7.50;;
55009;SDS011;40903;51.638;7.528;2024-03-06T02:16:21;11.83;;;7.00;;
55009;SDS011;40903;51.638;7.528;2024-03-06T02:18:53;9.17;;;6.03;;
55009;SDS011;40903;51.638;7.528;2024-03-06T02:21:20;13.53;;;7.27;;
55009;SDS011;40903;51.638;7.528;2024-03-06T02:23:46;12.03;;;6.33;;
55009;SDS011;40903;51.638;7.528;2024-03-06T02:26:12;10.87;;;6.13;;
55009;SDS011;40903;51.638;7.528;2024-03-06T02:28:38;16.93;;;8.20;;
55009;SDS011;40903;51.638;7.528;2024-03-06T02:31:04;14.53;;;7.03;;
55009;SDS011;40903;51.638;7.528;2024-03-06T02:33:32;17.63;;;8.27;;
55009;SDS011;40903;51.638;7.528;2024-03-06T02:35:59;16.63;;;9.37;;
55009;SDS011;40903;51.638;7.528;2024-03-06T02:38:24;14.23;;;9.07;;
55009;SDS011;40903;51.638;7.528;2024-03-06T02:40:50;14.03;;;8.20;;
55009;SDS011;40903;51.638;7.528;2024-03-06T02:43:16;13.07;;;8.30;;
55009;SDS011;40903;51.638;7.528;2024-03-06T02:45:41;15.60;;;8.13;;
55009;SDS011;40903;51.638;7.528;2024-03-06T02:48:08;15.00;;;7.53;;
55009;SDS011;40903;51.638;7.528;2024-03-06T02:50:36;12.60;;;7.40;;
55009;SDS011;40903;51.638;7.528;2024-03-06T02:53:02;15.13;;;8.03;;
55009;SDS011;40903;51.638;7.528;2024-03-06T02:55:27;11.77;;;7.07;;
55009;SDS011;40903;51.638;7.528;2024-03-06T02:57:53;17.53;;;8.87;;
55009;SDS011;40903;51.638;7.528;2024-03-06T03:00:19;15.87;;;7.93;;
55009;SDS011;40903;51.638;7.528;2024-03-06T03:02:44;18.47;;;7.77;;
55009;SDS011;40903;51.638;7.528;2024-03-06T03:05:10;14.90;;;7.50;;
55009;SDS011;40903;51.638;7.528;2024-03-06T03:07:35;16.40;;;8.80;;
55009;SDS011;40903;51.638;7.528;2024-03-06T03:10:01;16.57;;;8.73;;
55009;SDS011;40903;51.638;7.528;2024-03-06T03:12:26;14.97;;;8.50;;
55009;SDS011;40903;51.638;7.528;2024-03-06T03:14:51;17.07;;;8.33;;
55009;SDS011;40903;51.638;7.528;2024-03-06T03:17:18;14.63;;;8.70;;
55009;SDS011;40903;51.638;7.528;2024-03-06T03:19:44;14.10;;;7.90;;
55009;SDS011;40903;51.638;7.528;2024-03-06T03:22:10;15.97;;;8.20;;
55009;SDS011;40903;51.638;7.528;2024-03-06T03:24:35;11.70;;;6.57;;
55009;SDS011;40903;51.638;7.528;2024-03-06T03:27:02;16.17;;;8.53;;
55009;SDS011;40903;51.638;7.528;2024-03-06T03:29:27;17.53;;;7.70;;
55009;SDS011;40903;51.638;7.528;2024-03-06T03:31:54;14.77;;;8.93;;
55009;SDS011;40903;51.638;7.528;2024-03-06T03:34:20;16.97;;;9.20;;
55009;SDS011;40903;51.638;7.528;2024-03-06T03:36:46;20.57;;;9.90;;
55009;SDS011;40903;51.638;7.528;2024-03-06T03:39:14;16.87;;;9.23;;
55009;SDS011;40903;51.638;7.528;2024-03-06T03:41:43;16.07;;;9.60;;
55009;SDS011;40903;51.638;7.528;2024-03-06T03:44:11;18.67;;;10.10;;
55009;SDS011;40903;51.638;7.528;2024-03-06T03:46:37;18.00;;;10.23;;
55009;SDS011;40903;51.638;7.528;2024-03-06T03:49:03;15.80;;;10.27;;
55009;SDS011;40903;51.638;7.528;2024-03-06T03:51:29;16.63;;;9.83;;
55009;SDS011;40903;51.638;7.528;2024-03-06T03:53:55;15.60;;;9.70;;
55009;SDS011;40903;51.638;7.528;2024-03-06T03:56:20;19.23;;;11.00;;
55009;SDS011;40903;51.638;7.528;2024-03-06T03:58:46;20.40;;;11.47;;
55009;SDS011;40903;51.638;7.528;2024-03-06T04:01:12;20.93;;;12.60;;
55009;SDS011;40903;51.638;7.528;2024-03-06T04:03:38;23.93;;;12.30;;
55009;SDS011;40903;51.638;7.528;2024-03-06T04:06:03;20.80;;;11.47;;
55009;SDS011;40903;51.638;7.528;2024-03-06T04:08:29;24.10;;;12.70;;
55009;SDS011;40903;51.638;7.528;2024-03-06T04:10:55;21.73;;;12.40;;
55009;SDS011;40903;51.638;7.528;2024-03-06T04:13:20;22.03;;;12.00;;
55009;SDS011;40903;51.638;7.528;2024-03-06T04:15:46;23.97;;;12.40;;
55009;SDS011;40903;51.638;7.528;2024-03-06T04:18:12;23.10;;;12.03;;
55009;SDS011;40903;51.638;7.528;2024-03-06T04:20:37;19.10;;;11.33;;
55009;SDS011;40903;51.638;7.528;2024-03-06T04:23:03;18.70;;;11.13;;
55009;SDS011;40903;51.638;7.528;2024-03-06T04:25:29;19.33;;;11.17;;
55009;SDS011;40903;51.638;7.528;2024-03-06T04:27:54;23.47;;;12.37;;
55009;SDS011;40903;51.638;7.528;2024-03-06T04:30:20;20.63;;;11.13;;
55009;SDS011;40903;51.638;7.528;2024-03-06T04:32:46;24.07;;;11.07;;
55009;SDS011;40903;51.638;7.528;2024-03-06T04:35:11;20.17;;;11.57;;
55009;SDS011;40903;51.638;7.528;2024-03-06T04:37:37;19.67;;;10.50;;
55009;SDS011;40903;51.638;7.528;2024-03-06T04:40:03;20.87;;;11.13;;
55009;SDS011;40903;51.638;7.528;2024-03-06T04:42:33;20.27;;;11.73;;
55009;SDS011;40903;51.638;7.528;2024-03-06T04:45:02;22.57;;;11.53;;
55009;SDS011;40903;51.638;7.528;2024-03-06T04:47:28;16.87;;;10.23;;
55009;SDS011;40903;51.638;7.528;2024-03-06T04:49:54;15.67;;;10.10;;
55009;SDS011;40903;51.638;7.528;2024-03-06T04:52:19;15.53;;;9.43;;
55009;SDS011;40903;51.638;7.528;2024-03-06T04:54:45;19.00;;;10.37;;
55009;SDS011;40903;51.638;7.528;2024-03-06T04:57:10;18.07;;;11.33;;
55009;SDS011;40903;51.638;7.528;2024-03-06T04:59:36;22.80;;;11.10;;
55009;SDS011;40903;51.638;7.528;2024-03-06T05:02:01;15.90;;;10.40;;
55009;SDS011;40903;51.638;7.528;2024-03-06T05:04:28;16.00;;;9.23;;
55009;SDS011;40903;51.638;7.528;2024-03-06T05:06:54;17.40;;;9.53;;
55009;SDS011;40903;51.638;7.528;2024-03-06T05:09:19;14.17;;;9.40;;
55009;SDS011;40903;51.638;7.528;2024-03-06T05:11:45;16.87;;;9.60;;
55009;SDS011;40903;51.638;7.528;2024-03-06T05:14:15;15.20;;;9.07;;
55009;SDS011;40903;51.638;7.528;2024-03-06T05:16:41;15.53;;;9.20;;
55009;SDS011;40903;51.638;7.528;2024-03-06T05:19:06;15.63;;;9.60;;
55009;SDS011;40903;51.638;7.528;2024-03-06T05:21:32;15.43;;;10.50;;
55009;SDS011;40903;51.638;7.528;2024-03-06T05:23:58;13.87;;;9.70;;
55009;SDS011;40903;51.638;7.528;2024-03-06T05:26:23;17.10;;;10.17;;
55009;SDS011;40903;51.638;7.528;2024-03-06T05:28:49;12.10;;;8.20;;
55009;SDS011;40903;51.638;7.528;2024-03-06T05:31:18;14.00;;;9.43;;
55009;SDS011;40903;51.638;7.528;2024-03-06T05:33:48;13.23;;;8.67;;
55009;SDS011;40903;51.638;7.528;2024-03-06T05:36:15;11.80;;;8.47;;
55009;SDS011;40903;51.638;7.528;2024-03-06T05:38:42;14.17;;;8.60;;
55009;SDS011;40903;51.638;7.528;2024-03-06T05:41:08;13.17;;;8.77;;
55009;SDS011;40903;51.638;7.528;2024-03-06T05:43:34;15.90;;;10.70;;
55009;SDS011;40903;51.638;7.528;2024-03-06T05:45:59;16.00;;;10.10;;
55009;SDS011;40903;51.638;7.528;2024-03-06T05:48:25;14.40;;;9.37;;
55009;SDS011;40903;51.638;7.528;2024-03-06T05:50:51;14.73;;;9.20;;
55009;SDS011;40903;51.638;7.528;2024-03-06T05:53:17;15.77;;;9.73;;
55009;SDS011;40903;51.638;7.528;2024-03-06T05:55:43;15.33;;;9.30;;
55009;SDS011;40903;51.638;7.528;2024-03-06T05:58:09;14.17;;;8.13;;
55009;SDS011;40903;51.638;7.528;2024-03-06T06:00:34;13.60;;;9.07;;
55009;SDS011;40903;51.638;7.528;2024-03-06T06:03:00;12.87;;;8.37;;
55009;SDS011;40903;51.638;7.528;2024-03-06T06:05:26;13.07;;;8.87;;
55009;SDS011;40903;51.638;7.528;2024-03-06T06:07:51;14.40;;;8.93;;
55009;SDS011;40903;51.638;7.528;2024-03-06T06:10:17;13.60;;;9.00;;
55009;SDS011;40903;51.638;7.528;2024-03-06T06:12:42;14.67;;;9.37;;
55009;SDS011;40903;51.638;7.528;2024-03-06T06:15:08;14.07;;;9.57;;
55009;SDS011;40903;51.638;7.528;2024-03-06T06:17:34;14.17;;;9.07;;
55009;SDS011;40903;51.638;7.528;2024-03-06T06:20:00;12.87;;;8.50;;
55009;SDS011;40903;51.638;7.528;2024-03-06T06:22:28;14.13;;;8.80;;
55009;SDS011;40903;51.638;7.528;2024-03-06T06:24:54;12.73;;;8.03;;
55009;SDS011;40903;51.638;7.528;2024-03-06T06:27:20;14.93;;;8.53;;
55009;SDS011;40903;51.638;7.528;2024-03-06T06:29:46;12.03;;;8.07;;
55009;SDS011;40903;51.638;7.528;2024-03-06T06:32:11;13.50;;;8.83;;
55009;SDS011;40903;51.638;7.528;2024-03-06T06:34:37;12.60;;;7.97;;
55009;SDS011;40903;51.638;7.528;2024-03-06T06:37:02;11.63;;;7.80;;
55009;SDS011;40903;51.638;7.528;2024-03-06T06:39:28;11.67;;;7.70;;
55009;SDS011;40903;51.638;7.528;2024-03-06T06:41:53;13.47;;;8.23;;
55009;SDS011;40903;51.638;7.528;2024-03-06T06:44:19;10.57;;;7.47;;
55009;SDS011;40903;51.638;7.528;2024-03-06T06:46:44;10.97;;;7.50;;
55009;SDS011;40903;51.638;7.528;2024-03-06T06:49:10;10.57;;;7.17;;
55009;SDS011;40903;51.638;7.528;2024-03-06T06:51:35;11.70;;;8.53;;
55009;SDS011;40903;51.638;7.528;2024-03-06T06:54:01;11.37;;;7.30;;
55009;SDS011;40903;51.638;7.528;2024-03-06T06:56:26;13.50;;;8.00;;
55009;SDS011;40903;51.638;7.528;2024-03-06T06:58:52;10.77;;;7.27;;
55009;SDS011;40903;51.638;7.528;2024-03-06T07:01:18;12.43;;;7.70;;
55009;SDS011;40903;51.638;7.528;2024-03-06T07:03:45;14.17;;;8.57;;
55009;SDS011;40903;51.638;7.528;2024-03-06T07:06:10;13.23;;;8.23;;
55009;SDS011;40903;51.638;7.528;2024-03-06T07:08:36;12.03;;;7.57;;
55009;SDS011;40903;51.638;7.528;2024-03-06T07:11:02;13.87;;;8.53;;
55009;SDS011;40903;51.638;7.528;2024-03-06T07:13:28;16.00;;;8.50;;
55009;SDS011;40903;51.638;7.528;2024-03-06T07:15:53;14.13;;;8.20;;
55009;SDS011;40903;51.638;7.528;2024-03-06T07:18:19;13.17;;;7.77;;
55009;SDS011;40903;51.638;7.528;2024-03-06T07:20:44;12.97;;;8.20;;
55009;SDS011;40903;51.638;7.528;2024-03-06T07:23:10;17.83;;;9.40;;
55009;SDS011;40903;51.638;7.528;2024-03-06T07:25:36;15.03;;;8.63;;
55009;SDS011;40903;51.638;7.528;2024-03-06T07:28:01;12.87;;;8.40;;
55009;SDS011;40903;51.638;7.528;2024-03-06T07:30:27;15.40;;;9.33;;
55009;SDS011;40903;51.638;7.528;2024-03-06T07:32:54;16.33;;;9.03;;
55009;SDS011;40903;51.638;7.528;2024-03-06T07:35:20;14.70;;;8.40;;
55009;SDS011;40903;51.638;7.528;2024-03-06T07:37:45;13.53;;;8.20;;
55009;SDS011;40903;51.638;7.528;2024-03-06T07:40:13;13.27;;;8.53;;
55009;SDS011;40903;51.638;7.528;2024-03-06T07:42:38;13.57;;;8.23;;
55009;SDS011;40903;51.638;7.528;2024-03-06T07:45:04;13.97;;;8.57;;
55009;SDS011;40903;51.638;7.528;2024-03-06T07:47:33;13.93;;;9.20;;
55009;SDS011;40903;51.638;7.528;2024-03-06T07:49:59;19.00;;;10.37;;
55009;SDS011;40903;51.638;7.528;2024-03-06T07:52:24;14.73;;;8.80;;
55009;SDS011;40903;51.638;7.528;2024-03-06T07:54:50;17.50;;;9.40;;
55009;SDS011;40903;51.638;7.528;2024-03-06T07:57:15;17.23;;;9.20;;
55009;SDS011;40903;51.638;7.528;2024-03-06T07:59:41;15.57;;;9.67;;
55009;SDS011;40903;51.638;7.528;2024-03-06T08:02:06;18.50;;;10.40;;
55009;SDS011;40903;51.638;7.528;2024-03-06T08:04:32;19.97;;;10.87;;
55009;SDS011;40903;51.638;7.528;2024-03-06T08:06:58;22.37;;;12.07;;
55009;SDS011;40903;51.638;7.528;2024-03-06T08:09:23;26.77;;;13.17;;
55009;SDS011;40903;51.638;7.528;2024-03-06T08:11:50;25.47;;;14.10;;
55009;SDS011;40903;51.638;7.528;2024-03-06T08:14:19;29.13;;;15.10;;
55009;SDS011;40903;51.638;7.528;2024-03-06T08:16:44;23.07;;;12.67;;
55009;SDS011;40903;51.638;7.528;2024-03-06T08:19:10;25.07;;;13.37;;
55009;SDS011;40903;51.638;7.528;2024-03-06T08:21:35;26.60;;;14.17;;
55009;SDS011;40903;51.638;7.528;2024-03-06T08:24:01;23.10;;;13.30;;
55009;SDS011;40903;51.638;7.528;2024-03-06T08:26:26;22.57;;;12.90;;
55009;SDS011;40903;51.638;7.528;2024-03-06T08:28:52;18.33;;;11.83;;
55009;SDS011;40903;51.638;7.528;2024-03-06T08:31:18;20.47;;;13.60;;
55009;SDS011;40903;51.638;7.528;2024-03-06T08:33:45;23.93;;;13.83;;
55009;SDS011;40903;51.638;7.528;2024-03-06T08:36:10;22.37;;;13.10;;
55009;SDS011;40903;51.638;7.528;2024-03-06T08:38:36;19.13;;;11.67;;
55009;SDS011;40903;51.638;7.528;2024-03-06T08:41:01;20.67;;;13.33;;
55009;SDS011;40903;51.638;7.528;2024-03-06T08:43:27;23.17;;;14.03;;
55009;SDS011;40903;51.638;7.528;2024-03-06T08:45:52;20.90;;;12.23;;
55009;SDS011;40903;51.638;7.528;2024-03-06T08:48:18;21.27;;;13.47;;
55009;SDS011;40903;51.638;7.528;2024-03-06T08:50:43;24.33;;;14.30;;
55009;SDS011;40903;51.638;7.528;2024-03-06T08:53:09;22.57;;;13.77;;
55009;SDS011;40903;51.638;7.528;2024-03-06T08:55:34;24.37;;;13.43;;
55009;SDS011;40903;51.638;7.528;2024-03-06T08:58:00;22.07;;;13.53;;
55009;SDS011;40903;51.638;7.528;2024-03-06T09:00:26;25.50;;;14.13;;
55009;SDS011;40903;51.638;7.528;2024-03-06T09:02:52;29.67;;;16.53;;
55009;SDS011;40903;51.638;7.528;2024-03-06T09:05:18;31.13;;;15.53;;
55009;SDS011;40903;51.638;7.528;2024-03-06T09:07:43;29.43;;;16.60;;
55009;SDS011;40903;51.638;7.528;2024-03-06T09:10:12;28.23;;;14.97;;
55009;SDS011;40903;51.638;7.528;2024-03-06T09:12:38;31.43;;;16.10;;
55009;SDS011;40903;51.638;7.528;2024-03-06T09:15:05;29.13;;;15.50;;
55009;SDS011;40903;51.638;7.528;2024-03-06T09:17:32;31.17;;;17.43;;
55009;SDS011;40903;51.638;7.528;2024-03-06T09:19:58;28.40;;;15.73;;
55009;SDS011;40903;51.638;7.528;2024-03-06T09:22:23;28.93;;;17.07;;
55009;SDS011;40903;51.638;7.528;2024-03-06T09:24:49;29.43;;;16.60;;
55009;SDS011;40903;51.638;7.528;2024-03-06T09:27:14;30.90;;;16.87;;
55009;SDS011;40903;51.638;7.528;2024-03-06T09:29:42;33.43;;;18.00;;
55009;SDS011;40903;51.638;7.528;2024-03-06T09:32:08;31.20;;;18.07;;
55009;SDS011;40903;51.638;7.528;2024-03-06T09:34:33;29.83;;;16.80;;
55009;SDS011;40903;51.638;7.528;2024-03-06T09:36:59;30.97;;;16.87;;
55009;SDS011;40903;51.638;7.528;2024-03-06T09:39:24;36.47;;;18.17;;
55009;SDS011;40903;51.638;7.528;2024-03-06T09:41:50;31.70;;;17.33;;
55009;SDS011;40903;51.638;7.528;2024-03-06T09:44:16;32.67;;;18.60;;
55009;SDS011;40903;51.638;7.528;2024-03-06T09:46:42;28.33;;;17.70;;
55009;SDS011;40903;51.638;7.528;2024-03-06T09:49:12;30.80;;;17.63;;
55009;SDS011;40903;51.638;7.528;2024-03-06T09:51:42;40.13;;;20.47;;
55009;SDS011;40903;51.638;7.528;2024-03-06T09:54:13;32.60;;;19.03;;
55009;SDS011;40903;51.638;7.528;2024-03-06T09:56:42;39.30;;;20.63;;
55009;SDS011;40903;51.638;7.528;2024-03-06T09:59:09;38.33;;;20.80;;
55009;SDS011;40903;51.638;7.528;2024-03-06T10:01:36;36.93;;;21.27;;
55009;SDS011;40903;51.638;7.528;2024-03-06T10:04:27;37.20;;;21.10;;
55009;SDS011;40903;51.638;7.528;2024-03-06T10:06:53;35.07;;;20.43;;
55009;SDS011;40903;51.638;7.528;2024-03-06T10:09:20;37.80;;;21.63;;
55009;SDS011;40903;51.638;7.528;2024-03-06T10:11:46;38.23;;;21.87;;
55009;SDS011;40903;51.638;7.528;2024-03-06T10:14:12;39.10;;;23.93;;
55009;SDS011;40903;51.638;7.528;2024-03-06T10:16:50;39.33;;;21.97;;
55009;SDS011;40903;51.638;7.528;2024-03-06T10:19:27;34.57;;;20.90;;
55009;SDS011;40903;51.638;7.528;2024-03-06T10:21:53;37.67;;;20.90;;
55009;SDS011;40903;51.638;7.528;2024-03-06T10:24:20;35.10;;;20.37;;
55009;SDS011;40903;51.638;7.528;2024-03-06T10:26:48;32.90;;;19.47;;
55009;SDS011;40903;51.638;7.528;2024-03-06T10:29:17;29.83;;;18.63;;
55009;SDS011;40903;51.638;7.528;2024-03-06T10:32:01;31.77;;;19.73;;
55009;SDS011;40903;51.638;7.528;2024-03-06T10:34:27;30.87;;;20.23;;
55009;SDS011;40903;51.638;7.528;2024-03-06T10:36:57;35.90;;;20.73;;
55009;SDS011;40903;51.638;7.528;2024-03-06T10:39:24;30.73;;;20.63;;
55009;SDS011;40903;51.638;7.528;2024-03-06T10:41:53;37.83;;;22.03;;
55009;SDS011;40903;51.638;7.528;2024-03-06T10:44:28;33.33;;;21.53;;
55009;SDS011;40903;51.638;7.528;2024-03-06T10:46:56;35.83;;;21.53;;
55009;SDS011;40903;51.638;7.528;2024-03-06T10:49:25;37.20;;;21.10;;
55009;SDS011;40903;51.638;7.528;2024-03-06T10:51:53;37.47;;;20.70;;
55009;SDS011;40903;51.638;7.528;2024-03-06T10:54:22;39.63;;;22.03;;
55009;SDS011;40903;51.638;7.528;2024-03-06T10:56:51;34.97;;;21.40;;
55009;SDS011;40903;51.638;7.528;2024-03-06T10:59:18;34.03;;;20.87;;
55009;SDS011;40903;51.638;7.528;2024-03-06T11:01:45;41.17;;;22.60;;
55009;SDS011;40903;51.638;7.528;2024-03-06T11:04:12;35.97;;;23.50;;
55009;SDS011;40903;51.638;7.528;2024-03-06T11:06:40;41.07;;;23.43;;
55009;SDS011;40903;51.638;7.528;2024-03-06T11:09:05;40.83;;;23.10;;
55009;SDS011;40903;51.638;7.528;2024-03-06T11:11:47;43.97;;;25.40;;
55009;SDS011;40903;51.638;7.528;2024-03-06T11:14:22;41.20;;;24.80;;
55009;SDS011;40903;51.638;7.528;2024-03-06T11:17:00;40.60;;;24.33;;
55009;SDS011;40903;51.638;7.528;2024-03-06T11:19:28;36.50;;;21.57;;
55009;SDS011;40903;51.638;7.528;2024-03-06T11:21:56;38.67;;;22.53;;
55009;SDS011;40903;51.638;7.528;2024-03-06T11:24:32;37.50;;;24.33;;
55009;SDS011;40903;51.638;7.528;2024-03-06T11:27:01;36.77;;;22.93;;
55009;SDS011;40903;51.638;7.528;2024-03-06T11:29:28;38.47;;;21.80;;
55009;SDS011;40903;51.638;7.528;2024-03-06T11:31:59;38.67;;;23.27;;
55009;SDS011;40903;51.638;7.528;2024-03-06T11:34:33;36.03;;;22.23;;
55009;SDS011;40903;51.638;7.528;2024-03-06T11:37:06;36.70;;;21.73;;
55009;SDS011;40903;51.638;7.528;2024-03-06T11:39:34;34.90;;;22.17;;
55009;SDS011;40903;51.638;7.528;2024-03-06T11:42:01;36.83;;;23.10;;
55009;SDS011;40903;51.638;7.528;2024-03-06T11:44:27;41.23;;;23.93;;
55009;SDS011;40903;51.638;7.528;2024-03-06T11:49:24;37.13;;;21.63;;
55009;SDS011;40903;51.638;7.528;2024-03-06T11:51:51;39.03;;;21.73;;
55009;SDS011;40903;51.638;7.528;2024-03-06T11:54:18;36.30;;;21.90;;
55009;SDS011;40903;51.638;7.528;2024-03-06T11:56:48;38.50;;;23.80;;
55009;SDS011;40903;51.638;7.528;2024-03-06T11:59:40;34.43;;;20.97;;
55009;SDS011;40903;51.638;7.528;2024-03-06T12:02:04;32.20;;;20.77;;
55009;SDS011;40903;51.638;7.528;2024-03-06T12:04:31;32.50;;;20.40;;
55009;SDS011;40903;51.638;7.528;2024-03-06T12:07:03;35.33;;;20.63;;
55009;SDS011;40903;51.638;7.528;2024-03-06T12:09:35;31.47;;;19.53;;
55009;SDS011;40903;51.638;7.528;2024-03-06T12:12:02;32.50;;;19.83;;
55009;SDS011;40903;51.638;7.528;2024-03-06T12:14:28;30.20;;;19.10;;
55009;SDS011;40903;51.638;7.528;2024-03-06T12:16:58;28.50;;;19.30;;
55009;SDS011;40903;51.638;7.528;2024-03-06T12:19:33;33.27;;;19.23;;
55009;SDS011;40903;51.638;7.528;2024-03-06T12:22:00;31.47;;;19.27;;
55009;SDS011;40903;51.638;7.528;2024-03-06T12:24:29;29.30;;;17.20;;
55009;SDS011;40903;51.638;7.528;2024-03-06T12:27:02;35.03;;;19.43;;
55009;SDS011;40903;51.638;7.528;2024-03-06T12:29:34;27.83;;;17.87;;
55009;SDS011;40903;51.638;7.528;2024-03-06T12:32:01;28.80;;;18.23;;
55009;SDS011;40903;51.638;7.528;2024-03-06T12:34:27;25.27;;;16.00;;
55009;SDS011;40903;51.638;7.528;2024-03-06T12:36:55;24.33;;;15.73;;
55009;SDS011;40903;51.638;7.528;2024-03-06T12:39:21;23.40;;;15.57;;
55009;SDS011;40903;51.638;7.528;2024-03-06T12:41:51;21.63;;;14.60;;
55009;SDS011;40903;51.638;7.528;2024-03-06T12:44:16;25.80;;;15.80;;
55009;SDS011;40903;51.638;7.528;2024-03-06T12:46:42;25.53;;;15.03;;
55009;SDS011;40903;51.638;7.528;2024-03-06T12:49:10;23.37;;;14.60;;
55009;SDS011;40903;51.638;7.528;2024-03-06T12:51:36;22.47;;;15.50;;
55009;SDS011;40903;51.638;7.528;2024-03-06T12:54:01;24.83;;;14.53;;
55009;SDS011;40903;51.638;7.528;2024-03-06T12:56:28;21.47;;;14.30;;
55009;SDS011;40903;51.638;7.528;2024-03-06T12:58:54;21.43;;;14.10;;
55009;SDS011;40903;51.638;7.528;2024-03-06T13:01:19;21.70;;;14.20;;
55009;SDS011;40903;51.638;7.528;2024-03-06T13:03:45;18.43;;;13.53;;
55009;SDS011;40903;51.638;7.528;2024-03-06T13:06:10;20.83;;;13.47;;
55009;SDS011;40903;51.638;7.528;2024-03-06T13:08:36;23.20;;;13.83;;
55009;SDS011;40903;51.638;7.528;2024-03-06T13:11:02;19.37;;;13.87;;
55009;SDS011;40903;51.638;7.528;2024-03-06T13:13:28;20.40;;;13.17;;
55009;SDS011;40903;51.638;7.528;2024-03-06T13:15:58;18.17;;;12.47;;
55009;SDS011;40903;51.638;7.528;2024-03-06T13:18:24;18.00;;;11.60;;
55009;SDS011;40903;51.638;7.528;2024-03-06T13:20:51;16.43;;;11.57;;
55009;SDS011;40903;51.638;7.528;2024-03-06T13:23:17;16.50;;;11.70;;
55009;SDS011;40903;51.638;7.528;2024-03-06T13:25:42;18.47;;;11.77;;
55009;SDS011;40903;51.638;7.528;2024-03-06T13:28:09;17.27;;;11.63;;
55009;SDS011;40903;51.638;7.528;2024-03-06T13:30:34;15.77;;;11.63;;
55009;SDS011;40903;51.638;7.528;2024-03-06T13:33:00;16.33;;;10.83;;
55009;SDS011;40903;51.638;7.528;2024-03-06T13:35:26;15.60;;;10.60;;
55009;SDS011;40903;51.638;7.528;2024-03-06T13:37:52;16.93;;;10.30;;
55009;SDS011;40903;51.638;7.528;2024-03-06T13:40:18;17.13;;;10.10;;
55009;SDS011;40903;51.638;7.528;2024-03-06T13:42:44;14.20;;;9.33;;
55009;SDS011;40903;51.638;7.528;2024-03-06T13:45:10;15.07;;;10.00;;
55009;SDS011;40903;51.638;7.528;2024-03-06T13:47:39;13.97;;;9.63;;
55009;SDS011;40903;51.638;7.528;2024-03-06T13:50:13;13.80;;;9.47;;
55009;SDS011;40903;51.638;7.528;2024-03-06T13:52:40;13.77;;;9.03;;
55009;SDS011;40903;51.638;7.528;2024-03-06T13:55:06;15.37;;;9.33;;
55009;SDS011;40903;51.638;7.528;2024-03-06T13:57:33;10.23;;;7.40;;
55009;SDS011;40903;51.638;7.528;2024-03-06T14:00:00;12.83;;;8.43;;
55009;SDS011;40903;51.638;7.528;2024-03-06T14:02:26;11.83;;;8.43;;
55009;SDS011;40903;51.638;7.528;2024-03-06T14:04:52;11.80;;;8.23;;
55009;SDS011;40903;51.638;7.528;2024-03-06T14:07:17;16.70;;;10.60;;
55009;SDS011;40903;51.638;7.528;2024-03-06T14:09:43;15.43;;;10.37;;
55009;SDS011;40903;51.638;7.528;2024-03-06T14:12:08;14.80;;;10.13;;
55009;SDS011;40903;51.638;7.528;2024-03-06T14:14:34;16.50;;;10.53;;
55009;SDS011;40903;51.638;7.528;2024-03-06T14:16:59;16.63;;;10.70;;
55009;SDS011;40903;51.638;7.528;2024-03-06T14:19:25;16.30;;;10.80;;
55009;SDS011;40903;51.638;7.528;2024-03-06T14:21:50;15.90;;;9.67;;
55009;SDS011;40903;51.638;7.528;2024-03-06T14:24:16;14.43;;;10.00;;
55009;SDS011;40903;51.638;7.528;2024-03-06T14:26:42;15.43;;;9.67;;
55009;SDS011;40903;51.638;7.528;2024-03-06T14:29:07;15.27;;;10.00;;